Time;durP1;ratioP1;P1;durP2;ratioP2;P2;SDS_P1;SDS_P2;PMS_P1;PMS_P2;Temp;Humidity;BMP_temperature;BMP_pressure;BME280_temperature;BME280_humidity;BME280_pressure;Samples;Min_cycle;Max_cycle;Signal;HPM_P1;HPM_P2
2024/03/04 00:00:05;;;;;;;72.20;38.17;;;;;;;10.44;91.20;99512.16;5029849;28;20056;-39
2024/03/04 00:02:31;;;;;;;70.40;37.67;;;;;;;10.33;91.27;99508.28;5029945;28;20022;-40
2024/03/04 00:04:57;;;;;;;65.68;35.75;;;;;;;10.45;89.51;99510.31;5030089;28;20093;-37
2024/03/04 00:07:24;;;;;;;64.65;35.28;;;;;;;10.51;90.24;99512.16;5029851;28;20029;-40
2024/03/04 00:09:51;;;;;;;65.90;33.60;;;;;;;10.43;89.61;99501.72;5029975;28;20021;-38
2024/03/04 00:12:16;;;;;;;58.88;32.53;;;;;;;10.31;90.27;99505.00;5029610;28;20029;-39
2024/03/04 00:14:42;;;;;;;61.30;32.13;;;;;;;10.53;88.28;99500.25;5030158;28;20108;-38
2024/03/04 00:17:08;;;;;;;56.42;31.67;;;;;;;10.42;89.08;99510.75;5029769;28;20021;-40
2024/03/04 00:19:33;;;;;;;60.55;33.28;;;;;;;10.41;88.90;99506.44;5029718;28;20036;-36
2024/03/04 00:21:59;;;;;;;57.13;32.10;;;;;;;10.43;88.59;99513.16;5029810;28;20037;-38
2024/03/04 00:24:24;;;;;;;58.72;32.70;;;;;;;9.93;91.46;99505.63;5029901;28;20037;-39
2024/03/04 00:26:50;;;;;;;57.38;32.40;;;;;;;9.66;93.74;99511.97;5029398;28;20057;-37
2024/03/04 00:29:15;;;;;;;66.40;35.38;;;;;;;9.71;94.71;99502.38;5029728;28;20029;-39
2024/03/04 00:31:41;;;;;;;63.70;35.40;;;;;;;9.95;91.95;99508.91;5029447;28;20049;-36
2024/03/04 00:34:06;;;;;;;70.75;39.25;;;;;;;10.22;90.35;99516.84;5029558;28;20033;-39
2024/03/04 00:36:32;;;;;;;72.28;38.60;;;;;;;9.80;92.07;99502.97;5029718;28;20112;-37
2024/03/04 00:38:57;;;;;;;71.78;39.50;;;;;;;9.84;92.64;99506.84;5029777;28;20033;-38
2024/03/04 00:41:24;;;;;;;73.13;38.95;;;;;;;9.84;92.86;99509.50;5029495;28;20473;-39
2024/03/04 00:43:49;;;;;;;70.78;39.92;;;;;;;9.87;92.77;99518.94;5029512;28;20088;-40
2024/03/04 00:46:15;;;;;;;73.85;40.25;;;;;;;9.93;92.34;99518.09;5029341;28;20116;-40
2024/03/04 00:48:44;;;;;;;72.63;40.30;;;;;;;10.21;91.81;99519.75;5029420;28;20422;-40
2024/03/04 00:51:11;;;;;;;70.53;38.63;;;;;;;10.14;91.46;99517.06;5029599;28;20033;-36
2024/03/04 00:53:37;;;;;;;68.53;36.30;;;;;;;10.02;91.23;99519.53;5029666;28;20030;-40
2024/03/04 00:56:03;;;;;;;55.05;30.25;;;;;;;10.15;89.24;99516.88;5029478;28;20032;-40
2024/03/04 00:58:28;;;;;;;58.22;32.10;;;;;;;10.00;90.23;99508.28;5029352;28;20021;-37
2024/03/04 01:00:53;;;;;;;54.92;31.70;;;;;;;9.93;91.39;99507.47;5029135;28;20029;-37
2024/03/04 01:03:19;;;;;;;57.40;30.13;;;;;;;9.84;91.62;99498.88;5029378;28;20036;-39
2024/03/04 01:05:45;;;;;;;55.25;29.23;;;;;;;9.91;91.17;99499.69;5029497;28;20072;-39
2024/03/04 01:08:11;;;;;;;51.97;30.15;;;;;;;10.14;90.64;99504.59;5031356;28;20025;-39
2024/03/04 01:10:36;;;;;;;55.70;30.80;;;;;;;9.95;89.87;99500.09;5032801;28;20155;-39
2024/03/04 01:13:02;;;;;;;55.00;29.60;;;;;;;9.85;90.42;99500.53;5032641;28;20022;-40
2024/03/04 01:15:27;;;;;;;53.10;28.63;;;;;;;9.80;90.61;99505.63;5032950;28;20021;-38
2024/03/04 01:17:53;;;;;;;54.40;28.15;;;;;;;9.64;91.23;99503.38;5032864;28;20432;-38
2024/03/04 01:20:20;;;;;;;53.25;28.48;;;;;;;9.79;90.29;99499.50;5032687;28;20493;-39
2024/03/04 01:22:46;;;;;;;51.88;27.35;;;;;;;9.41;91.82;99499.25;5033347;28;20036;-27
2024/03/04 01:25:12;;;;;;;50.90;26.85;;;;;;;9.61;91.16;99501.13;5032677;28;20575;-26
2024/03/04 01:27:37;;;;;;;50.38;27.00;;;;;;;9.55;91.43;99497.44;5032399;28;20060;-27
2024/03/04 01:30:04;;;;;;;53.45;26.58;;;;;;;9.60;90.44;99502.97;5032429;28;20029;-26
2024/03/04 01:32:29;;;;;;;50.00;25.92;;;;;;;9.15;92.58;99487.53;5032727;28;20041;-26
2024/03/04 01:34:55;;;;;;;45.95;24.92;;;;;;;9.11;93.66;99496.94;5032308;28;20064;-26
2024/03/04 01:37:21;;;;;;;44.75;24.45;;;;;;;9.16;92.58;99506.97;5032252;28;20025;-26
2024/03/04 01:39:47;;;;;;;40.30;22.65;;;;;;;9.36;90.90;99505.16;5032385;28;20049;-27
2024/03/04 01:42:12;;;;;;;38.63;21.10;;;;;;;9.35;90.50;99503.53;5031950;28;20449;-26
2024/03/04 01:44:38;;;;;;;43.08;23.42;;;;;;;9.21;91.32;99512.47;5031760;28;20111;-26
2024/03/04 01:47:10;;;;;;;39.60;22.33;;;;;;;9.25;90.77;99516.38;5032141;28;20060;-26
2024/03/04 01:49:38;;;;;;;46.40;25.15;;;;;;;9.00;91.72;99519.59;5031921;28;20037;-26
2024/03/04 01:52:05;;;;;;;47.17;25.05;;;;;;;9.20;91.17;99519.63;5031878;28;20694;-27
2024/03/04 01:54:32;;;;;;;45.03;23.90;;;;;;;9.08;90.85;99517.75;5032102;28;20124;-26
2024/03/04 01:56:58;;;;;;;46.17;25.50;;;;;;;9.06;91.50;99517.13;5032146;28;20021;-27
2024/03/04 01:59:25;;;;;;;45.22;24.08;;;;;;;9.05;91.20;99515.50;5030566;28;20476;-26
2024/03/04 02:01:50;;;;;;;45.45;24.13;;;;;;;8.88;91.64;99513.19;5032243;28;20450;-26
2024/03/04 02:04:16;;;;;;;44.67;24.63;;;;;;;8.80;92.31;99506.22;5032046;28;20104;-26
2024/03/04 02:06:43;;;;;;;44.13;24.00;;;;;;;8.84;91.95;99514.59;5032226;28;20029;-27
2024/03/04 02:09:12;;;;;;;43.63;24.30;;;;;;;9.06;90.94;99525.91;5031978;28;20017;-26
2024/03/04 02:11:38;;;;;;;42.83;23.65;;;;;;;8.97;90.85;99522.63;5031766;28;20030;-26
2024/03/04 02:14:06;;;;;;;41.85;22.90;;;;;;;8.96;91.66;99522.81;5031884;28;20028;-26
2024/03/04 02:16:31;;;;;;;43.35;23.83;;;;;;;8.93;91.95;99525.84;5031954;28;20115;-26
2024/03/04 02:18:57;;;;;;;45.67;24.05;;;;;;;8.99;90.89;99528.56;5031255;28;20022;-26
2024/03/04 02:21:26;;;;;;;38.80;21.75;;;;;;;8.77;91.18;99495.19;5031964;28;20018;-26
2024/03/04 02:23:51;;;;;;;41.28;22.23;;;;;;;8.71;91.51;99511.91;5031377;28;20211;-26
2024/03/04 02:26:17;;;;;;;42.53;23.63;;;;;;;8.67;93.02;99511.47;5031205;28;20463;-26
2024/03/04 02:28:42;;;;;;;42.47;23.50;;;;;;;8.50;93.77;99510.16;5031411;28;20033;-26
2024/03/04 02:31:10;;;;;;;43.67;23.90;;;;;;;8.31;95.62;99511.63;5031271;28;20036;-26
2024/03/04 02:33:37;;;;;;;42.63;24.20;;;;;;;8.54;93.90;99506.09;5031353;28;20474;-26
2024/03/04 02:36:04;;;;;;;44.47;22.98;;;;;;;8.37;94.20;99510.84;5031376;28;20021;-26
2024/03/04 02:38:31;;;;;;;41.13;22.88;;;;;;;8.35;94.32;99508.38;5031293;28;20145;-26
2024/03/04 02:40:59;;;;;;;48.50;26.20;;;;;;;8.24;96.36;99511.56;5031763;28;20029;-27
2024/03/04 02:43:26;;;;;;;47.70;25.40;;;;;;;8.20;97.22;99508.50;5031831;28;20600;-26
2024/03/04 02:45:51;;;;;;;44.78;25.25;;;;;;;9.09;92.96;99512.25;5031005;28;20161;-27
2024/03/04 02:48:17;;;;;;;48.80;24.13;;;;;;;8.78;92.85;99510.91;5031398;28;20024;-27
2024/03/04 02:50:42;;;;;;;46.47;24.70;;;;;;;8.67;94.39;99518.63;5031726;28;20025;-26
2024/03/04 02:53:09;;;;;;;45.20;23.98;;;;;;;8.50;95.00;99515.47;5031722;28;20021;-40
2024/03/04 02:55:37;;;;;;;44.58;24.30;;;;;;;8.55;94.84;99513.03;5031676;28;20095;-37
2024/03/04 02:58:08;;;;;;;46.90;25.08;;;;;;;8.61;93.93;99512.25;5031107;28;20030;-37
2024/03/04 03:00:34;;;;;;;45.83;24.27;;;;;;;8.41;95.85;99520.94;5031090;28;20026;-39
2024/03/04 03:03:00;;;;;;;45.80;23.83;;;;;;;8.42;96.32;99516.44;5031533;28;20025;-39
2024/03/04 03:05:29;;;;;;;48.85;25.15;;;;;;;8.55;94.97;99513.84;5031240;28;20029;-40
2024/03/04 03:07:54;;;;;;;44.25;23.75;;;;;;;8.36;95.52;99514.53;5030680;28;20471;-39
2024/03/04 03:10:20;;;;;;;48.92;23.60;;;;;;;8.08;96.81;99523.31;5030939;28;20045;-39
2024/03/04 03:12:45;;;;;;;46.38;24.30;;;;;;;8.03;96.88;99515.09;5031476;28;20045;-39
2024/03/04 03:15:11;;;;;;;45.25;22.95;;;;;;;7.92;98.47;99526.22;5031267;28;20061;-39
2024/03/04 03:17:36;;;;;;;44.83;23.52;;;;;;;7.91;98.79;99527.25;5031202;28;20034;-36
2024/03/04 03:20:12;;;;;;;46.83;24.48;;;;;;;7.98;98.84;99521.00;5031041;28;20026;-38
2024/03/04 03:22:38;;;;;;;47.20;24.38;;;;;;;7.94;97.99;99532.16;5031103;28;20018;-39
2024/03/04 03:25:04;;;;;;;43.83;23.15;;;;;;;7.98;97.86;99530.78;5030573;28;20049;-38
2024/03/04 03:27:30;;;;;;;46.45;23.38;;;;;;;8.01;97.64;99533.03;5031178;28;20036;-38
2024/03/04 03:29:55;;;;;;;47.10;24.63;;;;;;;8.10;95.98;99539.03;5030889;28;20022;-38
2024/03/04 03:32:21;;;;;;;49.20;24.02;;;;;;;7.91;96.84;99545.78;5030628;28;20629;-39
2024/03/04 03:34:46;;;;;;;51.25;23.60;;;;;;;7.79;97.79;99548.97;5030983;28;20028;-39
2024/03/04 03:37:12;;;;;;;50.03;24.85;;;;;;;7.75;97.57;99545.06;5030923;28;20036;-37
2024/03/04 03:39:38;;;;;;;50.55;25.50;;;;;;;7.65;98.47;99557.78;5031234;28;20040;-37
2024/03/04 03:42:07;;;;;;;51.58;25.67;;;;;;;7.80;98.79;99550.59;5031045;28;20482;-36
2024/03/04 03:44:33;;;;;;;53.40;25.33;;;;;;;7.77;98.33;99550.97;5030821;28;20381;-41
2024/03/04 03:46:58;;;;;;;50.88;24.95;;;;;;;7.69;98.07;99560.88;5030970;28;20033;-40
2024/03/04 03:49:23;;;;;;;52.97;24.83;;;;;;;7.54;99.31;99558.28;5030595;28;20017;-39
2024/03/04 03:51:49;;;;;;;55.28;25.65;;;;;;;7.58;99.78;99556.91;5030625;28;20052;-39
2024/03/04 03:54:14;;;;;;;55.38;25.98;;;;;;;7.49;99.63;99555.38;5030940;28;20079;-39
2024/03/04 03:56:40;;;;;;;53.05;25.05;;;;;;;7.44;99.94;99555.94;5030599;28;20055;-36
2024/03/04 03:59:06;;;;;;;56.88;26.38;;;;;;;7.35;100.00;99570.28;5030569;28;20083;-37
2024/03/04 04:01:31;;;;;;;60.17;26.23;;;;;;;7.29;100.00;99563.94;5030889;28;20437;-39
2024/03/04 04:03:57;;;;;;;56.35;25.30;;;;;;;7.40;100.00;99559.97;5030633;28;20021;-37
2024/03/04 04:06:22;;;;;;;56.25;26.08;;;;;;;7.33;100.00;99570.50;5030348;28;20108;-36
2024/03/04 04:08:48;;;;;;;60.33;24.98;;;;;;;7.35;100.00;99568.47;5030451;28;20017;-37
2024/03/04 04:11:13;;;;;;;54.45;25.65;;;;;;;7.55;98.99;99557.28;5030676;28;20022;-41
2024/03/04 04:13:38;;;;;;;53.70;24.75;;;;;;;7.12;100.00;99563.34;5030497;28;20025;-39
2024/03/04 04:16:04;;;;;;;56.30;24.98;;;;;;;7.03;100.00;99559.16;5030668;28;20029;-39
2024/03/04 04:18:29;;;;;;;61.25;26.27;;;;;;;7.24;100.00;99558.38;5030388;28;20029;-39
2024/03/04 04:20:55;;;;;;;61.15;25.60;;;;;;;7.24;100.00;99558.38;5030337;28;20037;-39
2024/03/04 04:23:20;;;;;;;57.25;24.35;;;;;;;6.77;100.00;99546.38;5030177;28;20021;-38
2024/03/04 04:25:45;;;;;;;62.15;24.65;;;;;;;6.72;100.00;99556.69;5030343;28;20124;-38
2024/03/04 04:28:11;;;;;;;60.42;25.00;;;;;;;6.96;100.00;99558.22;5030331;28;20044;-38
2024/03/04 04:30:38;;;;;;;65.78;25.02;;;;;;;7.03;100.00;99554.66;5030138;28;20110;-37
2024/03/04 04:33:04;;;;;;;59.33;24.95;;;;;;;6.98;100.00;99559.69;5030846;28;20110;-39
2024/03/04 04:35:29;;;;;;;63.15;26.10;;;;;;;7.09;100.00;99557.59;5030466;28;20458;-39
2024/03/04 04:37:55;;;;;;;82.18;28.40;;;;;;;7.09;100.00;99547.81;5030355;28;20025;-38
2024/03/04 04:40:21;;;;;;;98.88;26.90;;;;;;;7.05;100.00;99557.94;5029653;28;20036;-39
2024/03/04 04:42:46;;;;;;;69.43;25.73;;;;;;;6.97;100.00;99546.66;5031914;28;20095;-36
2024/03/04 04:45:12;;;;;;;58.05;24.88;;;;;;;7.02;100.00;99560.13;5033970;28;20095;-38
2024/03/04 04:47:37;;;;;;;55.92;23.60;;;;;;;6.87;100.00;99559.34;5034064;28;20144;-39
2024/03/04 04:50:03;;;;;;;57.42;23.58;;;;;;;6.88;100.00;99550.41;5033833;28;20025;-37
2024/03/04 04:52:29;;;;;;;61.05;24.63;;;;;;;6.95;100.00;99552.13;5033716;28;20037;-38
2024/03/04 04:54:54;;;;;;;57.17;24.05;;;;;;;6.59;100.00;99573.22;5033857;28;20111;-38
2024/03/04 04:57:20;;;;;;;71.22;23.48;;;;;;;6.57;100.00;99564.66;5033680;28;20458;-38
2024/03/04 04:59:46;;;;;;;51.20;22.95;;;;;;;6.80;100.00;99569.84;5033851;28;20028;-39
2024/03/04 05:02:11;;;;;;;60.08;24.02;;;;;;;6.71;100.00;99579.69;5034366;28;20598;-37
2024/03/04 05:04:36;;;;;;;56.15;24.08;;;;;;;6.89;100.00;99581.94;5033915;28;20037;-36
2024/03/04 05:07:02;;;;;;;79.47;22.30;;;;;;;6.68;100.00;99587.16;5034344;28;20031;-39
2024/03/04 05:09:27;;;;;;;52.67;21.48;;;;;;;8.06;100.00;99596.06;5034256;28;20450;-39
2024/03/04 05:11:53;;;;;;;65.07;21.42;;;;;;;7.37;100.00;99597.41;5033790;28;20025;-37
2024/03/04 05:14:19;;;;;;;135.68;22.73;;;;;;;7.41;100.00;99601.34;5034031;28;20036;-37
2024/03/04 05:16:44;;;;;;;78.38;20.98;;;;;;;7.12;100.00;99602.19;5034219;28;20405;-27
2024/03/04 05:19:10;;;;;;;48.28;20.75;;;;;;;7.05;100.00;99615.34;5033576;28;20022;-27
2024/03/04 05:21:35;;;;;;;100.93;20.98;;;;;;;7.03;100.00;99607.59;5033690;28;20470;-27
2024/03/04 05:24:00;;;;;;;62.90;21.30;;;;;;;6.93;100.00;99620.28;5033652;28;20026;-27
2024/03/04 05:26:26;;;;;;;96.03;21.13;;;;;;;6.64;100.00;99615.78;5033533;28;20083;-27
2024/03/04 05:28:51;;;;;;;87.72;21.80;;;;;;;6.73;100.00;99616.53;5033811;28;20431;-27
2024/03/04 05:31:18;;;;;;;78.20;23.10;;;;;;;6.83;100.00;99620.56;5033711;28;20033;-27
2024/03/04 05:33:45;;;;;;;71.95;21.92;;;;;;;6.80;100.00;99622.75;5033508;28;20101;-26
2024/03/04 05:36:11;;;;;;;126.55;23.73;;;;;;;6.92;100.00;99625.75;5034181;28;20108;-26
2024/03/04 05:38:36;;;;;;;74.05;21.88;;;;;;;6.93;100.00;99624.72;5033812;28;20061;-26
2024/03/04 05:41:02;;;;;;;64.50;22.63;;;;;;;6.95;100.00;99628.84;5033889;28;20574;-26
2024/03/04 05:43:27;;;;;;;92.22;22.88;;;;;;;6.82;100.00;99633.97;5033658;28;20137;-26
2024/03/04 05:45:53;;;;;;;67.00;23.27;;;;;;;6.92;100.00;99626.56;5033897;28;20104;-27
2024/03/04 05:48:19;;;;;;;84.60;23.92;;;;;;;7.15;100.00;99639.69;5043106;28;20029;-26
2024/03/04 05:50:45;;;;;;;71.97;23.83;;;;;;;7.40;100.00;99626.97;5052093;28;20444;-26
2024/03/04 05:53:11;;;;;;;72.18;24.38;;;;;;;7.21;100.00;99627.56;5040723;28;20075;-27
2024/03/04 05:55:37;;;;;;;81.78;24.20;;;;;;;7.08;100.00;99632.66;5033044;28;20108;-27
2024/03/04 05:58:03;;;;;;;61.63;25.58;;;;;;;7.19;100.00;99634.84;5033405;28;20100;-27
2024/03/04 06:00:31;;;;;;;57.78;24.92;;;;;;;7.43;100.00;99645.13;5033310;28;20029;-26
2024/03/04 06:02:57;;;;;;;84.53;26.83;;;;;;;7.59;100.00;99635.34;5033473;28;20030;-26
2024/03/04 06:05:22;;;;;;;86.63;26.02;;;;;;;7.44;100.00;99636.22;5039749;28;20550;-26
2024/03/04 06:07:48;;;;;;;78.57;27.70;;;;;;;7.36;100.00;99638.94;5051334;28;20025;-27
2024/03/04 06:10:13;;;;;;;74.70;28.50;;;;;;;7.32;100.00;99640.31;5041253;28;20043;-26
2024/03/04 06:12:39;;;;;;;79.18;27.95;;;;;;;7.32;100.00;99642.16;5033103;28;20032;-27
2024/03/04 06:15:05;;;;;;;78.28;28.33;;;;;;;7.92;100.00;99634.84;5032956;28;20048;-26
2024/03/04 06:17:30;;;;;;;71.45;28.25;;;;;;;7.62;100.00;99642.91;5032922;28;20029;-41
2024/03/04 06:19:56;;;;;;;75.68;27.42;;;;;;;7.31;100.00;99633.41;5033204;28;20164;-41
2024/03/04 06:22:21;;;;;;;80.28;30.35;;;;;;;7.40;100.00;99639.41;5032907;28;20030;-40
2024/03/04 06:24:47;;;;;;;71.95;28.52;;;;;;;7.23;100.00;99633.47;5032616;28;20061;-40
2024/03/04 06:27:12;;;;;;;68.07;28.95;;;;;;;7.19;100.00;99635.66;5040391;28;20495;-39
2024/03/04 06:29:37;;;;;;;75.38;29.77;;;;;;;7.27;100.00;99634.75;5052404;28;20033;-38
2024/03/04 06:32:04;;;;;;;71.93;28.75;;;;;;;7.32;100.00;99631.56;5052166;28;20021;-40
2024/03/04 06:34:31;;;;;;;71.13;28.77;;;;;;;7.18;100.00;99634.03;5040822;28;20044;-36
2024/03/04 06:36:57;;;;;;;71.43;28.70;;;;;;;7.24;100.00;99640.44;5047651;28;20037;-44
2024/03/04 06:39:23;;;;;;;65.00;28.15;;;;;;;7.17;100.00;99626.28;5051583;28;20646;-41
2024/03/04 06:41:49;;;;;;;72.38;29.25;;;;;;;7.18;100.00;99635.88;5051714;28;20024;-39
2024/03/04 06:44:14;;;;;;;75.95;30.65;;;;;;;7.12;100.00;99631.28;5051648;28;20378;-41
2024/03/04 06:46:40;;;;;;;83.65;33.20;;;;;;;7.44;100.00;99628.25;5051012;28;20021;-41
2024/03/04 06:49:05;;;;;;;84.28;33.72;;;;;;;7.54;100.00;99624.47;5051618;28;20021;-39
2024/03/04 06:51:32;;;;;;;83.18;35.45;;;;;;;7.43;100.00;99620.50;5051403;28;20132;-40
2024/03/04 06:53:58;;;;;;;74.05;29.27;;;;;;;7.39;100.00;99622.69;5051768;28;20032;-38
2024/03/04 06:56:23;;;;;;;71.15;29.45;;;;;;;7.44;99.81;99635.34;5051764;28;20078;-37
2024/03/04 06:58:48;;;;;;;69.78;29.38;;;;;;;7.48;100.00;99635.81;5051200;28;20020;-38
2024/03/04 07:01:14;;;;;;;72.72;30.02;;;;;;;7.58;99.81;99636.34;5050456;28;20083;-39
2024/03/04 07:03:43;;;;;;;68.32;27.30;;;;;;;7.36;100.00;99632.81;5036562;28;20029;-40
2024/03/04 07:06:13;;;;;;;66.10;26.23;;;;;;;7.48;100.00;99643.75;5051182;28;20056;-27
2024/03/04 07:08:39;;;;;;;59.20;26.25;;;;;;;7.48;99.91;99647.22;5051320;28;20763;-27
2024/03/04 07:11:04;;;;;;;59.78;26.13;;;;;;;7.59;100.00;99630.03;5051118;28;20025;-26
2024/03/04 07:13:29;;;;;;;63.63;26.65;;;;;;;7.60;99.87;99643.09;5051051;28;20016;-26
2024/03/04 07:15:56;;;;;;;67.93;28.58;;;;;;;7.59;100.00;99640.63;5047881;28;20407;-27
2024/03/04 07:18:22;;;;;;;73.72;30.40;;;;;;;7.69;100.00;99645.63;5042323;28;20095;-26
2024/03/04 07:20:47;;;;;;;63.10;28.15;;;;;;;7.79;99.63;99639.03;5041771;28;20021;-27
2024/03/04 07:23:13;;;;;;;63.20;27.05;;;;;;;8.16;97.71;99633.66;5049447;28;20032;-27
2024/03/04 07:25:38;;;;;;;58.00;26.58;;;;;;;8.15;98.37;99638.16;5050734;28;20099;-26
2024/03/04 07:28:03;;;;;;;61.63;28.15;;;;;;;8.07;98.68;99635.63;5050825;28;20428;-27
2024/03/04 07:30:29;;;;;;;61.53;27.80;;;;;;;7.81;99.13;99642.31;5050656;28;20458;-27
2024/03/04 07:32:54;;;;;;;62.85;28.73;;;;;;;7.82;100.00;99643.97;5050591;28;20025;-27
2024/03/04 07:35:20;;;;;;;60.85;27.40;;;;;;;8.06;99.45;99639.28;5050532;28;20181;-27
2024/03/04 07:37:45;;;;;;;57.75;27.00;;;;;;;8.13;98.38;99636.69;5050633;28;20493;-27
2024/03/04 07:40:11;;;;;;;56.75;26.23;;;;;;;8.13;99.40;99639.34;5039021;28;20025;-27
2024/03/04 07:42:37;;;;;;;51.10;24.50;;;;;;;8.27;99.00;99641.13;5050598;28;20032;-27
2024/03/04 07:45:03;;;;;;;51.30;24.63;;;;;;;8.44;95.85;99648.84;5049770;28;20029;-27
2024/03/04 07:47:28;;;;;;;51.15;25.52;;;;;;;8.60;93.55;99644.06;5045214;28;20036;-27
2024/03/04 07:49:53;;;;;;;52.15;25.92;;;;;;;8.70;93.03;99640.25;5046762;28;20026;-27
2024/03/04 07:52:19;;;;;;;51.30;25.15;;;;;;;8.66;93.75;99645.09;5050998;28;20017;-27
2024/03/04 07:54:44;;;;;;;53.92;26.85;;;;;;;8.47;93.81;99632.53;5051141;28;20043;-26
2024/03/04 07:57:11;;;;;;;54.85;26.35;;;;;;;8.63;94.55;99639.41;5050458;28;20020;-26
2024/03/04 07:59:37;;;;;;;58.45;28.25;;;;;;;8.66;94.42;99649.59;5050557;28;20366;-27
2024/03/04 08:02:07;;;;;;;59.38;29.13;;;;;;;9.02;92.71;99651.28;5050852;28;20031;-26
2024/03/04 08:04:32;;;;;;;60.15;29.88;;;;;;;9.13;90.91;99650.72;5049910;28;20040;-27
2024/03/04 08:06:57;;;;;;;54.05;28.92;;;;;;;9.19;90.49;99642.81;5050006;28;20021;-27
2024/03/04 08:09:23;;;;;;;51.88;27.80;;;;;;;9.70;88.25;99646.06;5049648;28;20088;-27
2024/03/04 08:11:48;;;;;;;57.60;28.92;;;;;;;9.86;88.15;99644.84;5037004;28;20023;-27
2024/03/04 08:14:14;;;;;;;52.42;27.17;;;;;;;9.38;89.18;99643.88;5050605;28;20045;-27
2024/03/04 08:16:40;;;;;;;53.97;28.75;;;;;;;9.42;89.92;99646.16;5050333;28;20087;-26
2024/03/04 08:19:05;;;;;;;56.63;28.73;;;;;;;9.67;88.59;99643.78;5053970;28;20049;-26
2024/03/04 08:21:31;;;;;;;53.55;27.77;;;;;;;9.73;88.19;99637.69;5044817;28;20028;-27
2024/03/04 08:23:56;;;;;;;56.85;28.83;;;;;;;10.28;87.25;99646.38;5054441;28;20029;-28
2024/03/04 08:26:22;;;;;;;52.45;29.15;;;;;;;10.14;86.65;99639.38;5034919;28;20069;-27
2024/03/04 08:28:47;;;;;;;52.58;28.00;;;;;;;10.26;85.54;99637.78;5045270;28;20021;-28
2024/03/04 08:31:17;;;;;;;56.30;29.67;;;;;;;10.53;85.67;99620.00;5045640;28;20030;-28
2024/03/04 08:33:43;;;;;;;55.15;28.23;;;;;;;10.61;85.42;99639.44;5034734;28;20025;-27
2024/03/04 08:36:08;;;;;;;52.65;29.00;;;;;;;11.02;83.82;99635.66;5034406;28;20091;-27
2024/03/04 08:38:33;;;;;;;47.75;26.60;;;;;;;11.15;83.36;99635.63;5034096;28;20030;-28
2024/03/04 08:41:00;;;;;;;46.20;26.08;;;;;;;11.71;79.73;99629.66;5034273;28;20120;-27
2024/03/04 08:43:26;;;;;;;47.10;26.20;;;;;;;12.25;79.48;99626.69;5034091;28;20381;-28
2024/03/04 08:45:51;;;;;;;42.25;25.15;;;;;;;12.67;76.14;99624.25;5034920;28;20027;-27
2024/03/04 08:48:16;;;;;;;42.22;25.75;;;;;;;12.79;75.40;99613.66;5034064;28;20497;-27
2024/03/04 08:50:42;;;;;;;38.35;23.55;;;;;;;12.97;73.43;99618.22;5036761;28;20025;-27
2024/03/04 08:53:07;;;;;;;39.53;23.25;;;;;;;12.85;74.43;99621.63;5054275;28;20111;-26
2024/03/04 08:55:33;;;;;;;39.25;22.23;;;;;;;13.10;74.78;99618.88;5054344;28;20489;-27
2024/03/04 08:57:58;;;;;;;37.70;21.98;;;;;;;13.61;70.11;99616.03;5054065;28;20033;-27
2024/03/04 09:00:23;;;;;;;34.33;21.17;;;;;;;13.28;71.99;99612.69;5054359;28;20056;-27
2024/03/04 09:02:49;;;;;;;33.75;20.83;;;;;;;13.45;70.48;99607.59;5054207;28;20052;-28
2024/03/04 09:05:14;;;;;;;32.22;20.42;;;;;;;13.59;71.01;99605.56;5053857;28;20135;-28
2024/03/04 09:07:39;;;;;;;38.63;21.30;;;;;;;13.72;70.39;99609.09;5053995;28;20032;-29
2024/03/04 09:10:07;;;;;;;33.85;19.50;;;;;;;13.51;71.01;99605.06;5054055;28;20376;-28
2024/03/04 09:12:32;;;;;;;31.25;18.65;;;;;;;13.39;81.50;99603.16;5053838;28;20457;-28
2024/03/04 09:14:57;;;;;;;30.67;18.23;;;;;;;13.95;74.55;99606.50;5053985;28;20048;-28
2024/03/04 09:17:23;;;;;;;29.63;17.88;;;;;;;13.84;69.97;99596.56;5053041;28;20373;-28
2024/03/04 09:19:48;;;;;;;27.65;17.05;;;;;;;14.11;70.77;99596.16;5053435;28;20470;-28
2024/03/04 09:22:14;;;;;;;27.95;17.05;;;;;;;13.55;69.16;99596.34;5050151;28;20025;-27
2024/03/04 09:24:43;;;;;;;27.05;16.67;;;;;;;13.29;70.87;99601.00;5033726;28;20091;-26
2024/03/04 09:27:08;;;;;;;30.65;17.27;;;;;;;13.02;72.65;99599.66;5042530;28;20053;-26
2024/03/04 09:29:33;;;;;;;29.38;17.83;;;;;;;13.18;73.29;99595.59;5053197;28;20024;-28
2024/03/04 09:31:59;;;;;;;28.52;17.00;;;;;;;13.60;72.35;99593.03;5053853;28;20033;-27
2024/03/04 09:34:24;;;;;;;29.17;18.08;;;;;;;13.93;69.96;99591.72;5053761;28;20029;-29
2024/03/04 09:36:50;;;;;;;30.45;17.02;;;;;;;13.67;70.50;99589.22;5053609;28;20044;-27
2024/03/04 09:39:15;;;;;;;28.48;18.05;;;;;;;13.61;68.61;99586.63;5053243;28;20592;-29
2024/03/04 09:41:40;;;;;;;29.00;17.90;;;;;;;13.57;70.65;99580.09;5053133;28;20036;-25
2024/03/04 09:44:06;;;;;;;26.15;16.60;;;;;;;13.30;72.25;99577.78;5052877;28;20029;-27
2024/03/04 09:46:35;;;;;;;29.95;17.70;;;;;;;13.29;74.07;99573.47;5053230;28;20033;-28
2024/03/04 09:49:02;;;;;;;32.08;17.88;;;;;;;13.89;71.57;99573.44;5053095;28;20028;-29
2024/03/04 09:51:29;;;;;;;33.22;16.65;;;;;;;13.49;69.84;99579.38;5053117;28;20036;-28
2024/03/04 09:53:57;;;;;;;27.77;17.70;;;;;;;13.23;71.74;99571.66;5052739;28;20025;-30
2024/03/04 09:56:23;;;;;;;27.33;16.55;;;;;;;13.07;73.72;99568.56;5053064;28;20180;-27
2024/03/04 09:58:48;;;;;;;31.58;17.02;;;;;;;13.36;72.83;99574.19;5053261;28;20036;-27
2024/03/04 10:01:14;;;;;;;29.05;17.27;;;;;;;13.88;71.05;99571.84;5052876;28;20473;-28
2024/03/04 10:03:40;;;;;;;30.38;17.65;;;;;;;13.73;71.32;99574.13;5052742;28;20515;-28
2024/03/04 10:06:06;;;;;;;26.65;17.27;;;;;;;13.51;71.11;99570.31;5052735;28;20083;-27
2024/03/04 10:08:31;;;;;;;25.25;16.60;;;;;;;13.88;69.75;99573.69;5053716;28;20021;-28
2024/03/04 10:10:58;;;;;;;30.90;17.65;;;;;;;13.52;71.63;99571.94;5053104;28;20393;-28
2024/03/04 10:13:24;;;;;;;28.40;17.13;;;;;;;13.55;72.39;99574.16;5052816;28;20039;-27
2024/03/04 10:15:50;;;;;;;31.80;18.08;;;;;;;13.67;72.04;99564.34;5052691;28;20028;-28
2024/03/04 10:18:16;;;;;;;29.52;17.98;;;;;;;13.92;71.39;99544.59;5051301;28;20418;-27
2024/03/04 10:20:42;;;;;;;27.50;17.58;;;;;;;13.71;71.42;99541.44;5051107;28;20111;-27
2024/03/04 10:23:08;;;;;;;29.83;17.35;;;;;;;14.18;69.58;99551.38;5051306;28;20033;-27
2024/03/04 10:25:34;;;;;;;28.33;17.55;;;;;;;14.23;69.80;99548.84;5051525;28;20480;-28
2024/03/04 10:27:59;;;;;;;32.58;18.48;;;;;;;13.67;71.35;99518.88;5052074;28;20033;-29
2024/03/04 10:30:26;;;;;;;29.70;18.02;;;;;;;14.20;71.02;99535.91;5052179;28;20028;-31
2024/03/04 10:32:55;;;;;;;25.23;16.45;;;;;;;14.50;67.63;99543.03;5052188;28;20049;-29
2024/03/04 10:35:21;;;;;;;30.42;18.15;;;;;;;15.13;66.64;99544.91;5052361;28;20033;-29
2024/03/04 10:37:48;;;;;;;28.95;17.42;;;;;;;14.76;68.01;99539.88;5051876;28;20500;-28
2024/03/04 10:40:18;;;;;;;30.92;17.27;;;;;;;14.86;63.56;99544.63;5051389;28;20043;-27
2024/03/04 10:42:45;;;;;;;29.38;18.48;;;;;;;14.73;65.60;99524.25;5052087;28;20036;-29
2024/03/04 10:45:17;;;;;;;28.30;17.60;;;;;;;14.13;68.08;99532.56;5051806;28;20031;-27
2024/03/04 10:47:44;;;;;;;28.55;17.42;;;;;;;14.08;66.89;99533.25;5052173;28;20122;-27
2024/03/04 10:50:14;;;;;;;27.48;16.88;;;;;;;14.12;66.58;99517.53;5051510;28;20497;-28
2024/03/04 10:52:40;;;;;;;20.75;13.88;;;;;;;14.05;61.93;99520.31;5051409;28;20520;-27
2024/03/04 10:55:06;;;;;;;24.48;15.15;;;;;;;14.41;63.46;99511.25;5051728;28;20032;-27
2024/03/04 10:57:35;;;;;;;25.88;15.10;;;;;;;14.34;64.32;99513.25;5049847;28;20031;-28
2024/03/04 11:00:25;;;;;;;26.43;16.50;;;;;;;14.76;63.41;99518.44;5050940;28;20135;-28
2024/03/04 11:03:12;;;;;;;19.63;13.93;;;;;;;14.95;59.57;99510.25;5051545;28;20263;-27
2024/03/04 11:05:42;;;;;;;19.95;13.45;;;;;;;14.25;61.01;99506.59;5051631;28;20021;-27
2024/03/04 11:08:18;;;;;;;19.48;13.38;;;;;;;14.35;59.30;99474.69;5051414;28;20033;-27
2024/03/04 11:10:53;;;;;;;21.05;12.95;;;;;;;15.09;58.59;99487.47;5051527;28;20174;-30
2024/03/04 11:13:23;;;;;;;21.02;13.50;;;;;;;14.41;58.64;99500.56;5051406;28;20136;-29